Terminal Aerodrome Forecast
Issued by NWS

Current Version | Previous Version | Text Only | Print | Product List | Glossary Off
Versions: 1 2 3 4 5 6 7 8 9 10 11 12 13 14 15 16

981
FTUS41 KILN 211736
TAFLUK
TAF
KLUK 211736Z 2118/2218 35010G18KT P6SM VCSH BKN020
     FM212100 35005KT P6SM VCSH SCT035 BKN080
     FM220300 00000KT P6SM SCT060
      TEMPO 2209/2212 5SM BR
     FM221500 33008KT P6SM FEW080=

USA.gov is the U.S. government's official web portal to all federal, state and local government web resources and services.